Time;durP1;ratioP1;P1;durP2;ratioP2;P2;SDS_P1;SDS_P2;PMS_P1;PMS_P2;Temp;Humidity;BMP_temperature;BMP_pressure;BME280_temperature;BME280_humidity;BME280_pressure;Samples;Min_cycle;Max_cycle;Signal;HPM_P1;HPM_P2
2022/06/13 00:00:25;;;;;;;3.95;2.80;;;;;;;19.96;41.15;99079.91;5133684;27;20045;-41
2022/06/13 00:02:51;;;;;;;6.80;2.85;;;;;;;19.94;40.81;99077.38;5124250;27;20042;-41
2022/06/13 00:05:17;;;;;;;6.13;2.90;;;;;;;19.92;39.96;99075.84;5128591;27;20602;-40
2022/06/13 00:07:43;;;;;;;7.20;2.63;;;;;;;19.91;40.23;99074.19;5129490;27;20134;-39
2022/06/13 00:10:10;;;;;;;11.68;2.92;;;;;;;19.88;40.21;99072.66;5129629;27;20130;-39
2022/06/13 00:12:36;;;;;;;10.63;3.13;;;;;;;19.86;40.19;99064.00;5116176;27;20095;-40
2022/06/13 00:15:02;;;;;;;11.13;2.65;;;;;;;19.84;40.99;99058.84;5120133;27;20031;-38
2022/06/13 00:17:29;;;;;;;7.53;2.63;;;;;;;19.76;41.26;99052.53;5117790;27;20104;-39
2022/06/13 00:19:54;;;;;;;6.35;2.83;;;;;;;19.79;41.51;99062.81;5122244;27;20055;-40
2022/06/13 00:22:20;;;;;;;5.05;2.72;;;;;;;19.70;42.14;99059.16;5130852;27;20597;-40
2022/06/13 00:24:46;;;;;;;5.97;2.67;;;;;;;19.73;42.32;99063.34;5129120;27;20035;-39
2022/06/13 00:27:12;;;;;;;7.10;2.60;;;;;;;19.72;42.44;99067.78;5116176;27;20511;-40
2022/06/13 00:29:39;;;;;;;5.82;2.40;;;;;;;19.62;42.35;99053.69;5131957;27;20056;-41
2022/06/13 00:32:05;;;;;;;10.30;2.50;;;;;;;19.72;41.87;99062.50;5102534;28;20051;-39
2022/06/13 00:34:32;;;;;;;5.03;2.75;;;;;;;19.73;41.39;99074.72;5125927;27;20035;-39
2022/06/13 00:36:59;;;;;;;4.63;2.25;;;;;;;19.73;40.33;99064.16;5132286;27;20124;-39
2022/06/13 00:39:25;;;;;;;5.05;2.33;;;;;;;19.70;39.72;99060.94;5131280;27;20039;-40
2022/06/13 00:41:50;;;;;;;4.97;2.40;;;;;;;19.68;39.58;99060.25;5130057;27;20070;-40
2022/06/13 00:44:22;;;;;;;6.03;2.40;;;;;;;19.66;39.70;99049.81;5128885;27;20117;-40
2022/06/13 00:46:48;;;;;;;4.45;2.45;;;;;;;19.67;39.52;99056.78;5113805;27;20478;-39
2022/06/13 00:49:40;;;;;;;7.38;2.67;;;;;;;19.66;39.53;99056.88;5112643;28;20092;-40
2022/06/13 00:52:17;;;;;;;3.45;2.35;;;;;;;19.70;40.12;99053.88;5112419;27;20040;-39
2022/06/13 00:54:45;;;;;;;5.43;3.00;;;;;;;19.70;39.66;99056.50;5144614;27;20495;-41
2022/06/13 00:57:18;;;;;;;5.97;2.65;;;;;;;19.66;39.68;99038.44;5118350;27;20560;-40
2022/06/13 00:59:44;;;;;;;12.00;2.85;;;;;;;19.72;39.87;99045.84;5124515;27;20061;-39
2022/06/13 01:02:09;;;;;;;4.60;2.70;;;;;;;19.75;40.19;99049.06;5129808;27;20050;-40
2022/06/13 01:04:36;;;;;;;7.55;2.80;;;;;;;19.71;40.36;99045.00;5123051;27;20104;-40
2022/06/13 01:07:02;;;;;;;6.07;2.90;;;;;;;19.78;40.48;99061.16;5111144;27;20067;-39
2022/06/13 01:12:13;;;;;;;5.03;2.58;;;;;;;19.73;39.77;99048.34;5127018;27;20134;-40
2022/06/13 01:15:19;;;;;;;4.57;2.50;;;;;;;19.78;39.38;99051.44;5106975;28;20514;-40
2022/06/13 01:18:18;;;;;;;8.93;2.72;;;;;;;19.78;39.46;99054.06;5112915;27;20059;-40
2022/06/13 01:20:49;;;;;;;8.63;2.60;;;;;;;19.79;39.49;99044.34;5101960;27;20058;-40
2022/06/13 01:23:27;;;;;;;9.43;3.00;;;;;;;19.78;39.94;99045.34;5111603;28;20071;-40
2022/06/13 01:26:35;;;;;;;5.13;2.42;;;;;;;19.76;40.06;99047.25;5128392;27;20038;-39
2022/06/13 01:29:19;;;;;;;13.15;2.90;;;;;;;19.76;40.00;99053.38;5130065;27;20126;-40
2022/06/13 01:32:05;;;;;;;8.32;3.20;;;;;;;19.72;39.87;99051.13;5109035;27;20553;-39
2022/06/13 01:34:57;;;;;;;9.90;3.35;;;;;;;19.71;39.87;99044.16;5117286;27;20426;-39
2022/06/13 01:37:28;;;;;;;8.27;3.63;;;;;;;19.75;40.10;99049.06;5130553;27;20039;-39
2022/06/13 01:39:54;;;;;;;9.90;3.60;;;;;;;19.78;40.39;99040.06;5118594;27;20477;-40
2022/06/13 01:42:25;;;;;;;10.18;3.10;;;;;;;19.82;40.81;99054.69;5126387;27;20063;-40
2022/06/13 01:45:12;;;;;;;6.93;3.38;;;;;;;19.85;41.13;99041.22;5130075;27;20043;-40
2022/06/13 01:47:59;;;;;;;7.53;3.05;;;;;;;19.86;41.07;99046.38;5131415;27;20061;-40
2022/06/13 01:50:34;;;;;;;4.65;2.45;;;;;;;19.89;40.87;99054.03;5117082;27;20053;-40
2022/06/13 01:53:49;;;;;;;10.90;3.13;;;;;;;19.88;40.61;99048.91;5110240;28;20533;-39
2022/06/13 01:56:17;;;;;;;6.93;2.50;;;;;;;19.87;40.55;99049.84;5080848;28;20092;-40
2022/06/13 01:58:57;;;;;;;10.82;2.58;;;;;;;19.87;40.49;99048.06;5110249;27;20035;-39
2022/06/13 02:01:23;;;;;;;5.70;2.47;;;;;;;19.93;40.59;99044.06;5124736;27;20074;-39
2022/06/13 02:03:54;;;;;;;4.00;2.05;;;;;;;19.95;40.80;99044.78;5113334;27;20067;-39
2022/06/13 02:06:24;;;;;;;6.50;2.28;;;;;;;19.92;41.11;99038.91;5128597;27;20506;-40
2022/06/13 02:09:16;;;;;;;4.57;2.53;;;;;;;19.85;41.33;99052.63;5113190;27;20039;-39
2022/06/13 02:11:47;;;;;;;5.53;2.42;;;;;;;19.72;41.70;99032.66;5121309;27;20043;-41
2022/06/13 02:14:36;;;;;;;5.47;2.80;;;;;;;19.78;42.05;99040.06;5128154;27;20065;-40
2022/06/13 02:17:17;;;;;;;4.78;2.50;;;;;;;19.79;42.14;99039.91;5128229;27;20125;-39
2022/06/13 02:19:54;;;;;;;8.57;3.03;;;;;;;19.82;42.41;99034.41;5121535;27;20092;-40
2022/06/13 02:22:30;;;;;;;2.97;2.10;;;;;;;19.79;42.69;99036.44;5108159;28;20031;-40
2022/06/13 02:25:22;;;;;;;6.28;2.45;;;;;;;19.76;42.84;99029.63;5110728;28;20047;-40
2022/06/13 02:27:52;;;;;;;6.68;2.75;;;;;;;19.75;43.11;99043.78;5110395;28;20134;-40
2022/06/13 02:30:20;;;;;;;7.85;2.80;;;;;;;19.72;43.39;99035.28;5111262;27;20100;-39
2022/06/13 02:32:53;;;;;;;7.95;2.95;;;;;;;19.73;43.52;99039.63;5117261;27;20046;-39
2022/06/13 02:35:21;;;;;;;4.40;2.90;;;;;;;19.75;43.88;99032.38;5125313;27;20122;-40
2022/06/13 02:37:57;;;;;;;6.82;2.67;;;;;;;19.83;43.78;99032.63;5130675;27;20084;-40
2022/06/13 02:40:28;;;;;;;4.07;3.00;;;;;;;19.87;43.97;99028.75;5127138;27;20070;-40
2022/06/13 02:42:56;;;;;;;3.60;2.40;;;;;;;19.86;44.07;99025.28;5123943;27;20063;-39
2022/06/13 02:45:26;;;;;;;5.97;2.67;;;;;;;19.83;44.33;99022.91;5130351;28;20501;-40
2022/06/13 02:47:54;;;;;;;4.55;2.33;;;;;;;19.81;44.79;99021.34;5123473;28;20074;-39
2022/06/13 02:50:25;;;;;;;7.20;2.60;;;;;;;19.84;44.66;99024.56;5127970;28;20057;-39
2022/06/13 02:53:14;;;;;;;7.25;3.17;;;;;;;19.85;45.03;99018.31;5119420;28;20414;-40
2022/06/13 02:55:42;;;;;;;;;;;;;;;19.86;45.07;99021.78;5107789;28;20047;-39
2022/06/13 02:58:16;;;;;;;6.72;2.70;;;;;;;19.82;45.26;99018.59;5109412;28;19922;-39
2022/06/13 03:01:01;;;;;;;4.03;2.55;;;;;;;19.76;45.45;99021.72;5118866;28;20043;-40
2022/06/13 03:04:04;;;;;;;5.32;2.70;;;;;;;19.69;45.71;99017.06;5116788;28;20039;-39
2022/06/13 03:06:58;;;;;;;6.95;2.60;;;;;;;19.53;46.07;98999.03;5130560;27;20043;-40
2022/06/13 03:09:33;;;;;;;5.13;2.65;;;;;;;19.56;46.26;99011.13;5116558;28;20510;-39
2022/06/13 03:12:16;;;;;;;6.28;2.50;;;;;;;19.43;46.72;99017.38;5123639;28;20498;-40
2022/06/13 03:15:19;;;;;;;7.40;2.65;;;;;;;19.29;47.27;99015.03;5114455;28;20035;-39
2022/06/13 03:18:15;;;;;;;5.25;2.50;;;;;;;19.24;47.64;99011.09;5102634;28;20521;-39
2022/06/13 03:20:50;;;;;;;4.85;2.30;;;;;;;19.21;47.64;99009.50;5113332;28;20052;-38
2022/06/13 03:23:27;;;;;;;7.55;3.53;;;;;;;19.20;47.80;99007.03;5108811;28;20092;-39
2022/06/13 03:25:57;;;;;;;5.20;3.28;;;;;;;19.21;47.99;99012.16;5113044;28;20035;-39
2022/06/13 03:28:46;;;;;;;5.03;2.72;;;;;;;19.26;48.17;99004.72;5109231;28;20074;-39
2022/06/13 03:31:16;;;;;;;3.92;2.63;;;;;;;19.30;48.07;99003.53;5117672;28;20050;-39
2022/06/13 03:33:44;;;;;;;4.35;2.60;;;;;;;19.32;48.14;99003.38;5128881;28;20046;-39
2022/06/13 03:36:13;;;;;;;5.88;2.85;;;;;;;19.33;48.46;99007.69;5125778;28;20047;-38
2022/06/13 03:38:42;;;;;;;5.40;3.05;;;;;;;19.30;48.73;99006.16;5130006;28;20031;-38
2022/06/13 03:41:12;;;;;;;7.32;3.00;;;;;;;19.24;49.03;98996.09;5130146;27;20461;-39
2022/06/13 03:43:40;;;;;;;8.10;3.13;;;;;;;19.30;49.48;99006.16;5132887;27;20050;-39
2022/06/13 03:46:10;;;;;;;7.03;3.38;;;;;;;19.31;49.93;99009.63;5131204;27;20475;-40
2022/06/13 03:49:03;;;;;;;7.63;3.55;;;;;;;19.34;50.22;99002.31;5114734;27;20096;-39
2022/06/13 03:51:38;;;;;;;8.18;3.38;;;;;;;19.37;50.23;99004.69;5093770;27;20444;-39
2022/06/13 03:54:47;;;;;;;5.60;3.30;;;;;;;19.41;50.46;98992.09;5117836;27;20042;-39
2022/06/13 03:57:23;;;;;;;6.43;3.60;;;;;;;19.43;50.46;98995.44;5088365;27;20050;-39
2022/06/13 04:00:00;;;;;;;6.32;3.30;;;;;;;19.45;50.49;98994.41;5111993;27;20142;-40
2022/06/13 04:02:29;;;;;;;9.00;3.13;;;;;;;19.50;50.54;98996.66;5098487;28;20507;-40
2022/06/13 04:04:55;;;;;;;10.63;3.67;;;;;;;19.52;50.80;98991.25;5113787;27;20066;-40
2022/06/13 04:07:23;;;;;;;7.65;3.35;;;;;;;19.48;50.88;98984.53;5099234;28;20047;-39
2022/06/13 04:09:53;;;;;;;4.72;3.03;;;;;;;19.59;51.08;98993.25;5111205;27;20034;-39
2022/06/13 04:12:56;;;;;;;10.43;3.20;;;;;;;19.65;51.24;98984.84;5120534;27;20039;-39
2022/06/13 04:15:31;;;;;;;7.70;3.22;;;;;;;19.72;51.04;98991.28;5127109;27;20035;-39
2022/06/13 04:18:29;;;;;;;4.10;2.83;;;;;;;19.80;50.95;98985.38;5128161;27;20047;-39
2022/06/13 04:21:04;;;;;;;5.30;2.97;;;;;;;19.89;50.78;98987.22;5128481;27;20572;-39
2022/06/13 04:23:55;;;;;;;8.38;3.33;;;;;;;20.01;50.75;98990.66;5132387;27;20936;-39
2022/06/13 04:26:46;;;;;;;7.20;3.45;;;;;;;20.01;50.51;98986.22;5122586;27;20120;-39
2022/06/13 04:29:39;;;;;;;7.60;3.45;;;;;;;20.14;50.44;98996.59;5126841;27;20135;-39
2022/06/13 04:32:09;;;;;;;5.80;3.00;;;;;;;20.20;50.35;98986.31;5131287;27;20050;-38
2022/06/13 04:34:40;;;;;;;8.10;3.00;;;;;;;20.32;50.42;98991.56;5131560;27;20082;-40
2022/06/13 04:37:06;;;;;;;9.55;3.40;;;;;;;20.41;50.45;98991.59;5117964;27;20058;-39
2022/06/13 04:39:34;;;;;;;9.57;3.10;;;;;;;20.39;50.42;98971.59;5115023;27;20502;-39
2022/06/13 04:42:00;;;;;;;11.15;3.30;;;;;;;20.61;50.40;98985.47;5129031;27;20055;-40
2022/06/13 04:44:28;;;;;;;8.98;3.28;;;;;;;20.61;50.27;98964.34;5129883;27;20031;-39
2022/06/13 04:46:54;;;;;;;10.40;3.42;;;;;;;20.91;49.97;98987.22;5096753;27;20039;-39
2022/06/13 04:49:30;;;;;;;7.18;3.15;;;;;;;21.06;49.72;98985.03;5121961;27;20096;-39
2022/06/13 04:51:57;;;;;;;6.95;2.88;;;;;;;21.25;49.50;98995.66;5112049;27;20040;-39
2022/06/13 04:54:34;;;;;;;7.63;3.40;;;;;;;21.49;49.38;98993.50;5128193;27;20032;-40
2022/06/13 04:57:01;;;;;;;7.38;3.85;;;;;;;21.55;49.00;98990.31;5130744;27;20035;-39
2022/06/13 04:59:28;;;;;;;7.03;3.15;;;;;;;21.53;48.99;98991.41;5148098;27;20035;-39
2022/06/13 05:01:55;;;;;;;10.25;3.47;;;;;;;21.52;49.02;98993.19;5131250;27;20086;-39
2022/06/13 05:04:27;;;;;;;5.45;3.80;;;;;;;21.52;49.09;98993.19;5129414;27;20039;-39
2022/06/13 05:06:58;;;;;;;16.67;4.05;;;;;;;21.52;49.54;98997.66;5105508;27;20039;-40
2022/06/13 05:09:29;;;;;;;10.40;3.90;;;;;;;21.43;49.50;98979.97;5118668;27;20044;-40
2022/06/13 05:12:06;;;;;;;8.65;4.32;;;;;;;21.59;49.57;98993.50;5115313;27;20075;-40
2022/06/13 05:14:46;;;;;;;8.88;3.80;;;;;;;21.73;49.34;99002.81;5125148;27;20041;-40
2022/06/13 05:17:39;;;;;;;7.13;3.67;;;;;;;22.06;49.06;98999.75;5120878;27;20092;-39
2022/06/13 05:20:14;;;;;;;5.53;3.67;;;;;;;22.32;48.68;98995.53;5112968;27;20067;-39
2022/06/13 05:23:10;;;;;;;13.23;4.00;;;;;;;22.59;47.95;98991.25;5112594;27;20043;-39
2022/06/13 05:25:43;;;;;;;10.00;3.83;;;;;;;22.77;46.98;98995.66;5129077;27;20041;-39
2022/06/13 05:28:12;;;;;;;7.72;3.65;;;;;;;22.98;47.19;98992.75;5130819;27;20043;-39
2022/06/13 05:30:46;;;;;;;8.13;3.60;;;;;;;23.15;47.09;98991.13;5113519;27;20039;-39
2022/06/13 05:33:13;;;;;;;7.07;3.53;;;;;;;23.40;46.76;98986.91;5117604;27;20530;-39
2022/06/13 05:35:43;;;;;;;11.07;4.20;;;;;;;23.53;45.81;98992.72;5142424;27;20050;-39
2022/06/13 05:38:26;;;;;;;8.30;3.63;;;;;;;23.61;45.72;98990.97;5130898;27;20372;-39
2022/06/13 05:40:51;;;;;;;7.68;3.85;;;;;;;23.76;45.45;98985.94;5131505;27;20165;-39
2022/06/13 05:43:17;;;;;;;6.18;4.10;;;;;;;23.90;45.51;98984.59;5118960;27;20050;-39
2022/06/13 05:45:43;;;;;;;6.63;3.88;;;;;;;24.03;45.36;98983.19;5099865;28;20134;-39
2022/06/13 05:48:12;;;;;;;5.63;3.25;;;;;;;24.14;45.69;98992.72;5122474;27;20035;-39
2022/06/13 05:50:38;;;;;;;6.30;4.20;;;;;;;24.22;45.66;98990.19;5111171;27;20080;-40
2022/06/13 05:53:04;;;;;;;10.73;4.18;;;;;;;24.05;46.26;98977.72;5113495;27;20457;-40
2022/06/13 05:55:29;;;;;;;10.23;4.18;;;;;;;24.07;46.93;98989.84;5111095;27;20156;-39
2022/06/13 05:57:55;;;;;;;6.13;4.25;;;;;;;23.90;47.45;98972.16;5111326;27;20050;-39
2022/06/13 06:00:24;;;;;;;8.18;4.28;;;;;;;23.94;47.80;98970.84;5106023;28;20076;-39
2022/06/13 06:02:49;;;;;;;9.07;4.03;;;;;;;24.11;47.60;98987.75;5129275;27;20046;-39
2022/06/13 06:05:15;;;;;;;10.45;4.47;;;;;;;24.11;47.93;98984.25;5139582;27;20035;-40
2022/06/13 06:07:41;;;;;;;6.50;4.28;;;;;;;24.23;47.92;98980.38;5115029;27;20396;-40
2022/06/13 06:10:10;;;;;;;7.88;4.68;;;;;;;24.31;48.15;98980.44;5124334;27;20039;-39
2022/06/13 06:12:36;;;;;;;8.60;4.20;;;;;;;24.30;47.96;98979.59;5112508;27;20030;-39
2022/06/13 06:15:02;;;;;;;8.35;4.47;;;;;;;24.38;48.12;98970.84;5129521;27;20042;-39
2022/06/13 06:17:29;;;;;;;6.95;4.20;;;;;;;24.53;47.76;98984.38;5126608;27;20027;-38
2022/06/13 06:19:54;;;;;;;7.75;5.10;;;;;;;24.41;48.26;98976.66;5130955;27;20549;-39
2022/06/13 06:22:20;;;;;;;5.95;4.60;;;;;;;24.45;48.22;98975.34;5112734;27;20050;-39
2022/06/13 06:24:45;;;;;;;8.32;4.15;;;;;;;24.65;47.83;98977.81;5121645;27;20043;-40
2022/06/13 06:27:13;;;;;;;5.03;4.20;;;;;;;24.53;47.74;98973.75;5110912;27;20422;-41
2022/06/13 06:29:38;;;;;;;8.23;4.22;;;;;;;24.83;47.40;98986.50;5094123;28;20040;-39
2022/06/13 06:32:05;;;;;;;6.38;4.00;;;;;;;25.09;47.24;98979.31;5123526;27;20122;-41
2022/06/13 06:34:31;;;;;;;8.25;4.05;;;;;;;25.30;46.14;98960.25;5127915;27;20036;-39
2022/06/13 06:36:57;;;;;;;9.70;4.15;;;;;;;25.69;45.87;98965.81;5121095;27;20031;-38
2022/06/13 06:39:23;;;;;;;6.70;3.75;;;;;;;25.77;44.92;98975.63;5127974;27;20154;-39
2022/06/13 06:41:48;;;;;;;10.05;4.20;;;;;;;25.37;46.02;98987.03;5123055;27;20069;-40
2022/06/13 06:44:15;;;;;;;8.70;4.05;;;;;;;25.07;46.80;98978.63;5121684;28;20050;-39
2022/06/13 06:46:43;;;;;;;8.73;3.60;;;;;;;24.78;47.37;98976.34;5126841;28;20060;-40
2022/06/13 06:49:09;;;;;;;10.40;3.72;;;;;;;24.61;47.97;98982.59;5111631;28;20112;-40
2022/06/13 06:51:34;;;;;;;3.97;3.08;;;;;;;24.52;48.11;98982.69;5123962;27;20035;-40
2022/06/13 07:02:13;;;;;;;6.63;3.63;;;;;;;24.49;48.55;98981.22;5114598;28;20050;-40
2022/06/13 07:04:38;;;;;;;7.22;3.58;;;;;;;24.58;48.41;98984.72;5117857;27;20039;-40
2022/06/13 07:07:04;;;;;;;4.85;3.50;;;;;;;24.60;48.32;98985.41;5122555;28;20048;-41
2022/06/13 07:09:30;;;;;;;8.75;3.65;;;;;;;24.78;48.03;98981.69;5114196;28;20042;-40
2022/06/13 07:11:56;;;;;;;4.35;3.40;;;;;;;25.08;47.80;98982.97;5108308;28;20068;-39
2022/06/13 07:14:31;;;;;;;6.15;3.67;;;;;;;25.29;47.43;98995.84;5111949;27;20122;-40
2022/06/13 07:16:58;;;;;;;6.18;3.33;;;;;;;25.43;47.22;98981.91;5133734;27;20129;-40
2022/06/13 07:19:24;;;;;;;5.70;3.47;;;;;;;25.49;46.67;98964.44;5133354;27;20039;-39
2022/06/13 07:21:50;;;;;;;6.55;3.67;;;;;;;25.72;46.47;98973.47;5133929;27;20080;-39
2022/06/13 07:24:17;;;;;;;5.53;3.10;;;;;;;25.80;46.40;98983.31;5134668;27;20039;-39
2022/06/13 07:26:43;;;;;;;4.35;2.90;;;;;;;25.77;46.11;98981.78;5118406;27;20131;-39
2022/06/13 07:29:09;;;;;;;7.57;3.63;;;;;;;25.81;46.32;98982.28;5137605;27;20099;-39
2022/06/13 07:31:57;;;;;;;5.57;3.40;;;;;;;26.20;45.75;98979.75;5126434;27;20039;-42
2022/06/13 07:34:26;;;;;;;7.95;3.10;;;;;;;26.54;44.41;98967.03;5119580;27;20388;-41
2022/06/13 07:36:54;;;;;;;6.22;3.08;;;;;;;26.41;44.70;98986.25;5128245;27;20046;-40
2022/06/13 07:39:20;;;;;;;5.28;3.60;;;;;;;26.21;45.00;98974.28;5125327;27;20134;-40
2022/06/13 07:41:47;;;;;;;4.15;3.17;;;;;;;25.95;45.50;98976.31;5119966;27;20052;-40
2022/06/13 07:44:22;;;;;;;5.93;3.20;;;;;;;25.86;45.93;98964.81;5127033;27;20035;-39
2022/06/13 07:46:50;;;;;;;7.93;2.90;;;;;;;25.48;46.25;98963.63;5126029;27;20110;-40
2022/06/13 07:49:16;;;;;;;5.10;3.20;;;;;;;25.37;46.92;98977.22;5128143;27;20157;-40
2022/06/13 07:51:42;;;;;;;7.57;3.35;;;;;;;25.34;47.35;98966.91;5112700;27;20039;-39
2022/06/13 07:54:08;;;;;;;8.18;3.50;;;;;;;25.34;47.36;98974.88;5126854;27;20513;-40
2022/06/13 07:56:35;;;;;;;7.35;3.78;;;;;;;25.48;47.44;98968.94;5121644;27;20035;-41
2022/06/13 07:59:01;;;;;;;7.38;3.95;;;;;;;25.49;47.64;98975.91;5131942;27;20042;-40
2022/06/13 08:01:27;;;;;;;9.95;4.00;;;;;;;25.40;47.32;98960.09;5127354;27;20054;-40
2022/06/13 08:03:53;;;;;;;6.38;4.30;;;;;;;25.49;47.56;98980.41;5127533;27;20046;-39
2022/06/13 08:06:20;;;;;;;8.00;3.65;;;;;;;25.37;47.13;98969.25;5120488;27;20058;-39
2022/06/13 08:08:46;;;;;;;6.68;3.65;;;;;;;25.05;47.35;98955.88;5130027;27;20063;-40
2022/06/13 08:11:27;;;;;;;7.68;3.70;;;;;;;25.20;47.12;98971.03;5128978;27;20039;-41
2022/06/13 08:13:53;;;;;;;7.38;3.45;;;;;;;25.38;46.97;98967.44;5124179;27;20150;-42
2022/06/13 08:16:18;;;;;;;7.65;4.43;;;;;;;25.46;47.17;98968.25;5104984;27;20188;-41
2022/06/13 08:18:44;;;;;;;4.32;3.15;;;;;;;25.35;46.54;98959.75;5120382;27;20044;-41
2022/06/13 08:21:11;;;;;;;4.93;3.10;;;;;;;25.35;46.11;98944.63;5120281;27;20039;-40
2022/06/13 08:23:37;;;;;;;7.00;3.15;;;;;;;25.66;45.81;98951.00;5120178;27;20181;-40
2022/06/13 08:26:03;;;;;;;8.13;3.25;;;;;;;25.72;45.34;98947.69;5117595;27;20028;-41
2022/06/13 08:28:29;;;;;;;5.30;3.10;;;;;;;25.90;45.41;98950.19;5120927;27;20055;-40
2022/06/13 08:31:05;;;;;;;6.35;3.33;;;;;;;25.76;45.87;98942.00;5112740;28;20042;-40
2022/06/13 08:33:32;;;;;;;6.35;3.40;;;;;;;25.85;45.63;98941.84;5111618;28;20035;-39
2022/06/13 08:35:58;;;;;;;7.75;3.72;;;;;;;25.87;45.85;98944.31;5124994;27;20050;-40
2022/06/13 08:38:24;;;;;;;4.30;3.00;;;;;;;25.91;45.33;98938.50;5127827;27;20040;-40
2022/06/13 08:41:05;;;;;;;5.68;3.30;;;;;;;25.78;45.47;98938.19;5111693;28;20056;-40
2022/06/13 08:44:08;;;;;;;5.82;3.55;;;;;;;25.90;45.61;98944.84;5122243;27;20125;-40
2022/06/13 08:47:05;;;;;;;5.95;3.53;;;;;;;25.96;44.79;98946.00;5131688;27;20626;-41
2022/06/13 08:49:31;;;;;;;4.32;3.35;;;;;;;25.97;45.00;98932.50;5129115;27;20498;-42
2022/06/13 08:52:00;;;;;;;7.57;3.53;;;;;;;25.95;45.22;98944.34;5122405;27;20031;-41
2022/06/13 08:54:30;;;;;;;8.50;3.60;;;;;;;26.01;45.09;98931.16;5110643;27;20400;-40
2022/06/13 08:56:59;;;;;;;7.95;3.40;;;;;;;26.08;45.15;98939.31;5110946;28;20399;-40
2022/06/13 08:59:37;;;;;;;6.93;3.65;;;;;;;26.10;44.86;98935.50;5111519;27;20464;-40
2022/06/13 09:02:12;;;;;;;8.00;3.47;;;;;;;25.93;45.51;98931.19;5112214;27;20063;-41
2022/06/13 09:04:43;;;;;;;6.57;3.63;;;;;;;25.97;45.52;98927.16;5112432;28;20043;-42
2022/06/13 09:07:25;;;;;;;8.10;3.78;;;;;;;25.91;46.12;98932.38;5112141;28;20067;-41
2022/06/13 09:10:07;;;;;;;5.13;3.83;;;;;;;25.95;46.12;98926.53;5113312;27;20050;-41
2022/06/13 09:12:57;;;;;;;7.25;3.75;;;;;;;25.96;45.84;98904.19;5108268;27;20042;-41
2022/06/13 09:15:34;;;;;;;10.75;3.63;;;;;;;26.07;46.05;98919.00;5123610;27;20065;-41
2022/06/13 09:18:18;;;;;;;5.85;3.58;;;;;;;26.03;45.16;98917.66;5111964;28;20035;-41
2022/06/13 09:20:53;;;;;;;6.40;3.40;;;;;;;26.20;45.09;98913.97;5120511;27;20039;-41
2022/06/13 09:23:50;;;;;;;7.07;3.70;;;;;;;26.56;43.93;98907.22;5111746;28;20114;-41
2022/06/13 09:26:23;;;;;;;8.15;3.97;;;;;;;26.40;43.65;98907.28;5120051;27;20219;-41
2022/06/13 09:28:54;;;;;;;3.17;2.88;;;;;;;26.35;43.99;98917.63;5130665;27;20043;-41
2022/06/13 09:31:33;;;;;;;4.20;3.25;;;;;;;26.55;43.01;98908.22;5131023;27;20422;-42
2022/06/13 09:34:10;;;;;;;5.30;3.08;;;;;;;26.22;43.58;98909.34;5130800;27;20054;-40
2022/06/13 09:36:41;;;;;;;5.35;3.28;;;;;;;26.03;44.62;98910.50;5130706;27;20049;-40
2022/06/13 09:39:10;;;;;;;7.68;3.20;;;;;;;25.90;45.05;98912.88;5110261;28;20036;-42
2022/06/13 09:41:51;;;;;;;7.70;3.83;;;;;;;25.87;45.41;98901.72;5110225;28;20054;-42
2022/06/13 09:44:56;;;;;;;5.05;3.55;;;;;;;25.74;45.56;98915.56;5128650;27;20613;-41
2022/06/13 09:47:46;;;;;;;9.63;3.40;;;;;;;25.53;45.46;98901.88;5128392;27;20059;-41
2022/06/13 09:50:43;;;;;;;5.57;3.50;;;;;;;25.47;45.90;98908.72;5113446;27;20461;-41
2022/06/13 09:53:38;;;;;;;7.15;3.72;;;;;;;25.41;46.62;98903.22;5130736;27;20034;-41
2022/06/13 09:56:10;;;;;;;4.53;3.65;;;;;;;25.38;46.96;98901.72;5090291;27;20043;-41
2022/06/13 09:58:58;;;;;;;5.57;4.18;;;;;;;25.46;47.18;98907.03;5117188;27;20181;-41
2022/06/13 10:01:55;;;;;;;8.02;3.80;;;;;;;25.31;46.58;98890.91;5111464;28;20534;-42
2022/06/13 10:05:00;;;;;;;6.55;3.58;;;;;;;25.38;46.96;98907.06;5111031;27;20043;-41
2022/06/13 10:07:35;;;;;;;6.68;3.05;;;;;;;25.33;46.43;98901.41;5111074;27;20130;-42
2022/06/13 10:10:21;;;;;;;4.45;3.08;;;;;;;25.39;45.52;98899.88;5124433;27;20043;-41
2022/06/13 10:13:13;;;;;;;3.90;3.00;;;;;;;25.43;45.41;98895.91;5109708;28;20046;-41
2022/06/13 10:15:58;;;;;;;4.10;2.83;;;;;;;25.61;44.78;98888.59;5117676;27;20036;-42
2022/06/13 10:18:46;;;;;;;5.68;2.92;;;;;;;25.90;44.51;98872.94;5110025;28;20134;-40
2022/06/13 10:21:35;;;;;;;5.40;3.65;;;;;;;26.56;43.69;98885.88;5109619;28;20479;-41
2022/06/13 10:24:19;;;;;;;10.82;3.53;;;;;;;27.03;42.89;98871.66;5105681;27;20054;-40
2022/06/13 10:26:45;;;;;;;5.78;3.50;;;;;;;28.24;41.42;98875.13;5119181;27;20044;-42
2022/06/13 10:29:23;;;;;;;6.15;4.18;;;;;;;29.73;37.95;98868.09;5127694;27;20117;-41
2022/06/13 10:31:52;;;;;;;4.13;3.72;;;;;;;30.57;36.89;98866.19;5118258;27;20450;-40
2022/06/13 10:34:31;;;;;;;6.25;3.80;;;;;;;30.54;36.15;98860.41;5110571;28;20054;-41
2022/06/13 10:37:09;;;;;;;5.38;3.35;;;;;;;30.42;36.49;98862.78;5090769;28;20031;-43
2022/06/13 10:39:34;;;;;;;9.23;4.72;;;;;;;29.74;37.28;98858.22;5090848;28;20126;-42
2022/06/13 10:42:08;;;;;;;5.63;3.40;;;;;;;28.74;39.15;98860.13;5113209;27;20134;-41
2022/06/13 10:44:34;;;;;;;5.63;3.10;;;;;;;28.51;38.76;98855.72;5129281;27;20073;-41
2022/06/13 10:47:14;;;;;;;4.68;2.58;;;;;;;28.34;38.53;98881.00;5086159;28;20035;-43
2022/06/13 10:49:58;;;;;;;8.60;2.80;;;;;;;28.19;39.12;98869.50;5111366;28;20088;-42
2022/06/13 10:52:27;;;;;;;4.65;2.70;;;;;;;28.22;39.36;98867.28;5115085;28;20035;-41
2022/06/13 10:54:59;;;;;;;5.50;2.67;;;;;;;27.56;40.50;98864.59;5099050;28;20503;-42
2022/06/13 10:57:30;;;;;;;7.90;2.85;;;;;;;27.27;41.52;98868.78;5126698;27;20735;-41
2022/06/13 11:00:21;;;;;;;4.28;2.70;;;;;;;26.82;42.46;98882.91;5137760;27;20126;-42
2022/06/13 11:02:47;;;;;;;3.13;2.80;;;;;;;26.21;43.84;98899.66;5137859;27;20518;-42
2022/06/13 11:05:16;;;;;;;5.22;3.00;;;;;;;25.76;45.24;98876.25;5137401;27;20042;-41
2022/06/13 11:07:50;;;;;;;4.00;3.10;;;;;;;25.55;46.08;98881.25;5123349;27;20043;-42
2022/06/13 11:10:26;;;;;;;6.22;2.90;;;;;;;25.40;46.21;98881.09;5135180;27;20133;-41
2022/06/13 11:12:51;;;;;;;7.13;3.45;;;;;;;25.26;46.83;98876.44;5129831;27;20047;-40
2022/06/13 11:24:45;;;;;;;6.22;3.22;;;;;;;24.49;48.89;98859.75;5135403;27;20582;-44
2022/06/13 11:27:42;;;;;;;4.47;3.30;;;;;;;24.48;48.72;98857.28;5131066;27;20511;-41
2022/06/13 11:30:26;;;;;;;5.90;3.35;;;;;;;24.38;49.23;98857.44;5113296;27;20035;-42
2022/06/13 11:33:06;;;;;;;4.97;3.30;;;;;;;24.29;49.44;98855.69;5122715;27;20050;-43
2022/06/13 11:35:32;;;;;;;5.13;3.10;;;;;;;24.14;49.91;98862.56;5135697;27;20067;-43
2022/06/13 11:38:17;;;;;;;10.23;4.00;;;;;;;24.03;50.19;98865.50;5116904;28;20067;-42
2022/06/13 11:40:45;;;;;;;7.40;3.17;;;;;;;24.00;50.30;98861.34;5119602;27;20426;-41
2022/06/13 11:43:41;;;;;;;6.15;3.13;;;;;;;24.10;50.12;98865.72;5125597;27;20108;-41
2022/06/13 11:46:13;;;;;;;6.05;3.10;;;;;;;23.99;50.17;98851.72;5137416;27;20422;-41
2022/06/13 11:48:46;;;;;;;5.57;3.47;;;;;;;23.97;50.31;98855.53;5136230;27;20057;-42
2022/06/13 11:51:23;;;;;;;7.13;3.40;;;;;;;23.98;50.40;98865.16;5136398;27;20039;-41
2022/06/13 11:53:50;;;;;;;6.15;3.78;;;;;;;24.05;50.26;98850.25;5135769;27;20126;-42
2022/06/13 11:56:29;;;;;;;7.57;3.20;;;;;;;24.11;49.65;98854.94;5135830;27;20145;-41
2022/06/13 11:58:55;;;;;;;;;;;;;;;24.11;49.31;98865.56;5133134;27;20056;-42
2022/06/13 12:01:38;;;;;;;8.07;3.47;;;;;;;24.13;49.02;98868.88;5095985;28;20438;-41
2022/06/13 12:04:09;;;;;;;4.47;2.90;;;;;;;24.09;48.55;98872.84;5113687;28;20031;-41
2022/06/13 12:06:47;;;;;;;3.80;3.25;;;;;;;23.98;49.21;98873.13;5095032;28;20051;-41
2022/06/13 12:09:33;;;;;;;8.23;3.85;;;;;;;23.83;51.16;98883.47;5100750;27;20042;-41
2022/06/13 12:12:07;;;;;;;7.50;3.88;;;;;;;23.56;52.37;98868.53;5133302;27;20065;-41
2022/06/13 12:14:37;;;;;;;8.40;3.80;;;;;;;23.53;52.99;98883.94;5123538;27;20070;-41
2022/06/13 12:17:18;;;;;;;6.25;3.80;;;;;;;23.38;54.55;98883.63;5112729;27;20158;-41
2022/06/13 12:19:59;;;;;;;9.10;4.13;;;;;;;23.28;55.65;98888.19;5132152;27;20070;-43
2022/06/13 12:22:31;;;;;;;8.55;4.53;;;;;;;23.07;56.87;98890.28;5117174;27;20167;-58
2022/06/13 12:25:13;;;;;;;5.03;4.28;;;;;;;22.93;57.24;98902.22;5132030;27;20039;-54
2022/06/13 12:28:05;;;;;;;4.32;3.88;;;;;;;22.71;60.94;98902.69;5126336;27;20047;-52